Time;durP1;ratioP1;P1;durP2;ratioP2;P2;SDS_P1;SDS_P2;PMS_P1;PMS_P2;Temp;Humidity;BMP_temperature;BMP_pressure;BME280_temperature;BME280_humidity;BME280_pressure;Samples;Min_cycle;Max_cycle;Signal;HPM_P1;HPM_P2
2022/08/17 00:00:42;;;;;;;16.02;6.90;;;24.30;99.90;;;;;;5016245;28;20197;-81
2022/08/17 00:03:16;;;;;;;10.57;6.65;;;24.30;99.90;;;;;;5014528;28;20173;-81
2022/08/17 00:05:46;;;;;;;7.53;6.82;;;24.30;99.90;;;;;;5016604;28;20168;-81
2022/08/17 00:08:14;;;;;;;14.32;7.15;;;24.30;99.90;;;;;;5032200;28;20283;-80
2022/08/17 00:10:42;;;;;;;7.63;6.82;;;24.50;99.90;;;;;;5016115;28;20204;-81
2022/08/17 00:13:12;;;;;;;10.85;7.53;;;24.40;99.90;;;;;;5032547;28;20196;-81
2022/08/17 00:15:38;;;;;;;6.60;6.00;;;24.30;99.90;;;;;;5015804;28;20230;-80
2022/08/17 00:18:03;;;;;;;10.35;6.82;;;24.30;99.90;;;;;;5015788;28;20172;-80
2022/08/17 00:20:29;;;;;;;9.90;6.20;;;24.00;99.90;;;;;;5014344;28;20235;-81
2022/08/17 00:23:07;;;;;;;7.45;6.57;;;24.00;99.90;;;;;;5016910;28;20169;-81
2022/08/17 00:25:32;;;;;;;8.73;6.57;;;24.00;99.90;;;;;;5014246;28;20172;-81
2022/08/17 00:27:58;;;;;;;6.90;6.13;;;24.10;99.90;;;;;;5016038;28;20172;-81
2022/08/17 00:30:24;;;;;;;17.65;6.80;;;24.00;99.90;;;;;;5015722;28;20191;-81
2022/08/17 00:32:49;;;;;;;9.05;6.15;;;24.20;99.90;;;;;;5014282;28;20183;-80
2022/08/17 00:35:18;;;;;;;6.50;5.93;;;24.40;99.90;;;;;;5014889;28;20203;-80
2022/08/17 00:37:45;;;;;;;6.07;5.63;;;24.50;99.90;;;;;;5015356;28;20623;-80
2022/08/17 00:40:14;;;;;;;15.40;6.50;;;24.70;99.90;;;;;;5015507;28;20183;-80
2022/08/17 00:42:40;;;;;;;7.18;5.50;;;24.80;99.90;;;;;;5013856;28;20177;-81
2022/08/17 00:45:09;;;;;;;11.10;6.00;;;24.80;99.90;;;;;;5013831;28;20188;-81
2022/08/17 00:47:34;;;;;;;8.65;6.03;;;24.30;99.90;;;;;;5016035;28;20180;-82
2022/08/17 00:50:08;;;;;;;7.00;5.57;;;24.10;99.90;;;;;;5014007;28;20176;-81
2022/08/17 00:52:37;;;;;;;6.72;6.25;;;24.20;99.90;;;;;;5015146;28;20161;-79
2022/08/17 00:55:05;;;;;;;7.07;6.38;;;24.20;99.90;;;;;;5015861;28;20176;-81
2022/08/17 00:57:40;;;;;;;6.20;5.60;;;24.30;99.90;;;;;;5023527;28;20175;-81
2022/08/17 01:00:20;;;;;;;6.65;6.15;;;24.20;99.90;;;;;;5016455;28;20172;-81
2022/08/17 01:02:47;;;;;;;6.80;6.25;;;24.30;99.90;;;;;;5012993;28;20199;-81
2022/08/17 01:05:20;;;;;;;6.25;5.47;;;24.50;99.90;;;;;;5014122;28;20175;-81
2022/08/17 01:07:48;;;;;;;7.70;5.70;;;24.50;99.90;;;;;;5013603;28;20655;-80
2022/08/17 01:10:17;;;;;;;6.55;6.05;;;24.50;99.90;;;;;;5013366;28;20172;-81
2022/08/17 01:12:42;;;;;;;6.60;6.00;;;24.40;99.90;;;;;;5029001;28;20208;-79
2022/08/17 01:15:08;;;;;;;6.97;6.28;;;24.50;99.90;;;;;;5014031;28;20208;-81
2022/08/17 01:17:34;;;;;;;9.23;5.80;;;24.60;99.90;;;;;;5013439;28;20165;-80
2022/08/17 01:20:00;;;;;;;13.32;6.35;;;24.70;99.90;;;;;;5013777;28;20529;-81
2022/08/17 01:22:26;;;;;;;11.93;6.88;;;24.70;99.90;;;;;;5012244;28;20218;-79
2022/08/17 01:24:57;;;;;;;6.97;6.43;;;24.90;99.90;;;;;;5013587;28;20187;-79
2022/08/17 01:27:25;;;;;;;11.15;6.60;;;24.90;99.90;;;;;;5011941;28;20251;-81
2022/08/17 01:29:57;;;;;;;10.25;6.30;;;24.70;99.90;;;;;;5013060;28;20172;-81
2022/08/17 01:32:29;;;;;;;7.28;5.95;;;24.70;99.90;;;;;;5012171;28;20203;-81
2022/08/17 01:34:59;;;;;;;7.60;6.97;;;24.80;99.90;;;;;;5013237;28;20204;-81
2022/08/17 01:37:31;;;;;;;6.97;6.35;;;24.90;99.90;;;;;;5013325;28;20167;-81
2022/08/17 01:40:04;;;;;;;6.05;5.55;;;24.80;99.90;;;;;;5013372;28;20165;-82
2022/08/17 01:42:35;;;;;;;6.63;6.03;;;24.70;99.90;;;;;;5011716;28;20238;-81
2022/08/17 01:45:21;;;;;;;7.60;5.97;;;24.80;99.90;;;;;;5011089;28;20656;-82
2022/08/17 01:47:48;;;;;;;8.73;5.60;;;24.60;99.90;;;;;;5011847;28;20180;-81
2022/08/17 01:50:19;;;;;;;6.93;6.32;;;24.50;99.90;;;;;;5011842;28;20169;-79
2022/08/17 01:52:50;;;;;;;11.57;6.35;;;24.40;99.90;;;;;;5011723;28;20263;-81
2022/08/17 01:55:19;;;;;;;7.57;6.85;;;24.50;99.90;;;;;;5012817;28;20641;-80
2022/08/17 01:57:44;;;;;;;10.68;6.50;;;24.60;99.90;;;;;;5027928;28;20207;-81
2022/08/17 02:00:12;;;;;;;6.82;6.13;;;24.60;99.90;;;;;;5012633;28;20208;-80
2022/08/17 02:02:38;;;;;;;7.35;6.70;;;24.60;99.90;;;;;;5011590;28;20165;-80
2022/08/17 02:05:05;;;;;;;12.73;6.60;;;24.60;99.90;;;;;;5012486;28;20207;-79
2022/08/17 02:07:30;;;;;;;8.20;7.53;;;24.50;99.90;;;;;;5012612;28;20169;-80
2022/08/17 02:09:56;;;;;;;13.32;6.95;;;24.50;99.90;;;;;;5012004;28;20166;-81
2022/08/17 02:12:23;;;;;;;7.72;6.97;;;24.30;99.90;;;;;;5011692;28;20589;-80
2022/08/17 02:14:49;;;;;;;12.85;6.78;;;24.30;99.90;;;;;;5012128;28;20309;-80
2022/08/17 02:17:15;;;;;;;9.27;6.57;;;24.30;99.90;;;;;;5031868;28;20638;-80
2022/08/17 02:19:41;;;;;;;12.02;6.47;;;24.40;99.90;;;;;;5015713;28;20173;-80
2022/08/17 02:22:06;;;;;;;9.20;6.57;;;24.40;99.90;;;;;;5015729;28;20192;-82
2022/08/17 02:24:36;;;;;;;7.78;6.50;;;24.10;99.90;;;;;;5020950;28;20255;-80
2022/08/17 02:27:02;;;;;;;6.50;6.00;;;23.80;99.90;;;;;;5028514;28;20239;-86
2022/08/17 02:29:28;;;;;;;7.20;6.15;;;23.60;99.90;;;;;;5039047;28;20169;-81
2022/08/17 02:31:53;;;;;;;6.95;6.22;;;23.80;99.90;;;;;;5039117;28;20239;-84
2022/08/17 02:34:19;;;;;;;7.15;6.45;;;23.60;99.90;;;;;;5038719;28;20200;-80
2022/08/17 02:36:45;;;;;;;9.50;6.88;;;23.60;99.90;;;;;;5055074;28;20181;-81
2022/08/17 02:39:11;;;;;;;10.77;6.93;;;23.80;99.90;;;;;;5023672;28;20185;-80
2022/08/17 02:41:38;;;;;;;22.42;6.55;;;24.00;99.90;;;;;;5015337;28;20280;-81
2022/08/17 02:44:05;;;;;;;10.63;6.55;;;24.10;99.90;;;;;;5031379;28;20255;-80
2022/08/17 02:46:31;;;;;;;16.80;7.68;;;24.10;99.90;;;;;;5016469;28;20632;-81
2022/08/17 02:48:58;;;;;;;11.85;7.18;;;23.90;99.90;;;;;;5016813;28;20244;-84
2022/08/17 02:51:24;;;;;;;9.85;7.03;;;23.70;99.90;;;;;;5016259;28;20242;-81
2022/08/17 02:53:50;;;;;;;8.82;6.85;;;23.80;99.90;;;;;;5016547;28;20259;-80
2022/08/17 02:56:15;;;;;;;7.15;6.47;;;23.80;99.90;;;;;;5016049;28;20173;-85
2022/08/17 02:58:41;;;;;;;10.05;6.57;;;23.80;99.90;;;;;;5016184;28;20175;-83
2022/08/17 03:01:11;;;;;;;8.70;7.10;;;23.90;99.90;;;;;;5014771;28;20197;-81
2022/08/17 03:03:37;;;;;;;9.82;7.25;;;24.10;99.90;;;;;;5031474;28;20173;-80
2022/08/17 03:06:04;;;;;;;14.93;7.88;;;24.30;99.90;;;;;;5016407;28;20165;-79
2022/08/17 03:08:30;;;;;;;8.30;7.03;;;24.40;99.90;;;;;;5014676;28;20184;-80
2022/08/17 03:10:56;;;;;;;13.80;7.97;;;24.20;99.90;;;;;;5015949;28;20192;-82
2022/08/17 03:13:22;;;;;;;16.30;8.80;;;24.00;99.90;;;;;;5015984;28;20192;-80
2022/08/17 03:15:47;;;;;;;9.63;8.50;;;24.00;99.90;;;;;;5015776;28;20214;-81
2022/08/17 03:18:16;;;;;;;21.63;9.70;;;23.80;99.90;;;;;;5015780;28;20641;-80
2022/08/17 03:20:42;;;;;;;13.00;10.30;;;23.80;99.90;;;;;;5016177;28;20204;-86
2022/08/17 03:23:08;;;;;;;12.82;10.13;;;23.70;99.90;;;;;;5030907;28;20183;-83
2022/08/17 03:25:42;;;;;;;16.77;9.48;;;23.70;99.90;;;;;;5015554;28;20756;-81
2022/08/17 03:28:10;;;;;;;13.50;9.80;;;23.60;99.90;;;;;;5014490;28;20192;-80
2022/08/17 03:30:36;;;;;;;11.60;10.55;;;23.60;99.90;;;;;;5014210;28;20203;-81
2022/08/17 03:33:05;;;;;;;16.50;10.30;;;23.50;99.90;;;;;;5030025;28;20180;-80
2022/08/17 03:35:33;;;;;;;11.65;10.45;;;23.60;99.90;;;;;;5013444;28;20536;-80
2022/08/17 03:38:00;;;;;;;12.35;11.13;;;23.60;99.90;;;;;;5030202;28;20644;-82
2022/08/17 03:40:26;;;;;;;13.80;10.60;;;23.70;99.90;;;;;;5030131;28;20282;-83
2022/08/17 03:42:53;;;;;;;11.98;10.77;;;23.60;99.90;;;;;;5030191;28;20165;-82
2022/08/17 03:56:41;;;;;;;10.55;9.45;;;23.60;99.90;;;;;;5014718;28;20168;-82
2022/08/17 03:56:41;;;;;;;9.50;8.60;;;23.40;99.90;;;;;;5014969;28;20198;-80
2022/08/17 03:59:07;;;;;;;12.02;8.95;;;23.30;99.90;;;;;;5015161;28;20168;-80
2022/08/17 04:01:32;;;;;;;9.55;8.60;;;23.30;99.90;;;;;;5013305;28;20195;-83
2022/08/17 04:03:58;;;;;;;12.32;8.48;;;23.40;99.90;;;;;;5013712;28;20259;-80
2022/08/17 04:06:24;;;;;;;10.73;9.77;;;23.50;99.90;;;;;;5013750;28;20625;-82
2022/08/17 04:08:49;;;;;;;11.63;9.88;;;23.30;99.90;;;;;;5029846;28;20192;-81
2022/08/17 04:11:15;;;;;;;13.68;10.23;;;23.30;99.90;;;;;;5015127;28;20196;-80
2022/08/17 04:13:41;;;;;;;13.15;11.15;;;23.40;99.90;;;;;;5014291;28;20205;-81
2022/08/17 04:16:07;;;;;;;15.40;11.00;;;23.40;99.90;;;;;;5014432;28;20203;-80
2022/08/17 04:18:32;;;;;;;12.98;11.65;;;23.50;99.90;;;;;;5014230;28;20219;-80
2022/08/17 04:20:58;;;;;;;14.88;12.27;;;23.70;99.90;;;;;;5014166;28;20253;-80
2022/08/17 04:23:27;;;;;;;14.07;11.70;;;23.50;99.90;;;;;;5014046;28;20176;-80
2022/08/17 04:25:52;;;;;;;17.55;13.00;;;23.50;99.90;;;;;;5029442;28;20633;-79
2022/08/17 04:28:19;;;;;;;19.35;11.90;;;23.50;99.90;;;;;;5029393;28;20179;-80
2022/08/17 04:30:46;;;;;;;16.83;11.40;;;23.50;99.90;;;;;;5029334;28;20671;-80
2022/08/17 04:33:14;;;;;;;18.20;12.43;;;23.40;99.90;;;;;;5014313;28;20188;-81
2022/08/17 04:35:46;;;;;;;14.55;11.25;;;23.30;99.90;;;;;;5029480;28;20525;-81
2022/08/17 04:38:15;;;;;;;18.58;10.48;;;23.20;99.90;;;;;;5029712;28;20179;-80
2022/08/17 04:43:27;;;;;;;13.23;11.98;;;23.30;99.90;;;;;;5014362;28;20219;-80
2022/08/17 04:45:55;;;;;;;11.20;10.07;;;23.10;99.90;;;;;;5029448;28;20165;-81
2022/08/17 04:48:21;;;;;;;13.00;11.75;;;23.00;99.90;;;;;;5015947;28;20256;-81
2022/08/17 04:50:50;;;;;;;12.15;11.13;;;23.10;99.90;;;;;;5032532;28;20287;-80
2022/08/17 04:53:17;;;;;;;12.85;10.10;;;23.10;99.90;;;;;;5032024;28;20260;-80
2022/08/17 04:55:43;;;;;;;14.02;10.93;;;23.20;99.90;;;;;;5019488;28;20203;-80
2022/08/17 04:58:09;;;;;;;19.05;11.70;;;23.20;99.90;;;;;;5033627;28;20160;-81
2022/08/17 05:00:35;;;;;;;13.40;11.25;;;23.30;99.90;;;;;;5031761;28;20200;-83
2022/08/17 05:03:01;;;;;;;12.00;10.52;;;23.40;99.90;;;;;;5033532;28;20177;-82
2022/08/17 05:05:35;;;;;;;15.13;12.20;;;23.50;99.90;;;;;;5031396;28;20164;-81
2022/08/17 05:08:03;;;;;;;14.35;10.60;;;23.50;99.90;;;;;;5016690;28;20184;-80
2022/08/17 05:10:34;;;;;;;12.93;10.80;;;23.50;99.90;;;;;;5014505;28;20247;-82
2022/08/17 05:13:26;;;;;;;11.48;10.57;;;23.30;99.90;;;;;;5028688;28;20179;-81
2022/08/17 05:16:02;;;;;;;13.43;11.02;;;23.30;99.90;;;;;;5013408;28;20260;-82
2022/08/17 05:18:28;;;;;;;16.52;12.07;;;23.30;99.90;;;;;;5028742;28;20644;-81
2022/08/17 05:20:55;;;;;;;12.02;10.98;;;23.40;99.90;;;;;;5013434;28;20184;-82
2022/08/17 05:23:23;;;;;;;14.30;12.95;;;23.50;99.90;;;;;;5028648;28;20165;-81
2022/08/17 05:25:51;;;;;;;20.20;12.02;;;23.60;99.90;;;;;;5013043;28;20173;-81
2022/08/17 05:28:18;;;;;;;18.48;13.35;;;23.60;99.90;;;;;;5028498;28;20168;-82
2022/08/17 05:30:45;;;;;;;15.35;12.35;;;23.60;99.90;;;;;;5029290;28;20227;-85
2022/08/17 05:33:26;;;;;;;18.45;13.45;;;23.60;99.90;;;;;;5029360;28;20228;-85
2022/08/17 05:35:54;;;;;;;14.10;12.70;;;23.50;99.90;;;;;;5015914;28;20648;-88
2022/08/17 05:38:22;;;;;;;16.58;12.93;;;23.30;99.90;;;;;;5030686;28;20167;-91
2022/08/17 05:40:48;;;;;;;24.38;13.73;;;23.30;99.90;;;;;;5031501;28;20189;-90
2022/08/17 05:43:16;;;;;;;17.20;13.88;;;23.40;99.90;;;;;;5030821;28;20179;-91
2022/08/17 05:46:11;;;;;;;16.58;14.60;;;23.50;99.90;;;;;;5033713;28;20176;-95
2022/08/17 05:48:47;;;;;;;21.05;14.93;;;23.60;99.90;;;;;;5031454;28;20191;-92
2022/08/17 05:51:24;;;;;;;21.05;15.93;;;23.50;99.90;;;;;;5030766;28;20216;-90
2022/08/17 05:54:16;;;;;;;19.35;15.48;;;23.60;99.90;;;;;;5040220;22;20221;-92
2022/08/17 05:57:24;;;;;;;24.52;16.65;;;23.80;99.90;;;;;;5033880;28;20176;-96
2022/08/17 06:00:20;;;;;;;24.02;17.65;;;23.80;99.90;;;;;;5045351;28;20187;-92
2022/08/17 06:03:23;;;;;;;21.00;16.17;;;23.60;99.90;;;;;;5017823;28;20537;-90
2022/08/17 06:06:19;;;;;;;25.67;17.70;;;23.50;99.90;;;;;;5015866;28;20650;-96
2022/08/17 06:09:09;;;;;;;18.80;16.70;;;23.50;99.90;;;;;;5017146;28;20176;-93
2022/08/17 06:11:52;;;;;;;18.73;16.15;;;23.50;99.90;;;;;;5025564;28;20208;-95
2022/08/17 06:14:34;;;;;;;24.05;18.25;;;23.60;99.90;;;;;;5027840;28;20184;-95
2022/08/17 06:17:04;;;;;;;19.33;16.88;;;23.60;99.90;;;;;;5372814;22;20203;-96
2022/08/17 06:19:51;;;;;;;22.65;18.27;;;23.50;99.90;;;;;;5057515;28;20167;-95
2022/08/17 06:22:21;;;;;;;21.48;19.27;;;23.60;99.90;;;;;;5959624;22;21016;-93
2022/08/17 06:25:11;;;;;;;20.15;18.23;;;23.60;99.90;;;;;;5038385;28;20199;-89
2022/08/17 06:27:42;;;;;;;20.00;17.83;;;23.30;99.90;;;;;;5036146;28;20186;-92
2022/08/17 06:30:19;;;;;;;26.88;19.65;;;23.40;99.90;;;;;;5041164;28;20186;-91
2022/08/17 06:32:47;;;;;;;21.95;19.63;;;23.50;99.90;;;;;;5038002;28;20178;-91
2022/08/17 06:35:17;;;;;;;24.85;22.08;;;23.30;99.90;;;;;;5037428;28;20209;-88
2022/08/17 06:38:06;;;;;;;27.70;20.50;;;23.40;99.90;;;;;;5037148;28;20245;-93
2022/08/17 06:43:16;;;;;;;38.22;22.73;;;23.40;99.90;;;;;;5352652;22;20235;-93
2022/08/17 06:45:48;;;;;;;27.65;23.55;;;23.10;99.90;;;;;;5033789;28;20171;-95
2022/08/17 06:48:51;;;;;;;29.48;25.35;;;22.90;99.90;;;;;;5036533;28;20170;-94
2022/08/17 06:51:36;;;;;;;39.15;26.05;;;23.00;99.90;;;;;;4980781;28;20287;-94
2022/08/17 06:54:11;;;;;;;33.03;26.45;;;23.00;99.90;;;;;;5028724;28;20266;-82
2022/08/17 06:56:52;;;;;;;38.78;27.73;;;23.00;99.90;;;;;;5011542;28;20183;-84
2022/08/17 06:59:24;;;;;;;39.35;26.63;;;23.20;99.90;;;;;;5011336;28;20169;-82
2022/08/17 07:01:51;;;;;;;42.92;27.70;;;23.30;99.90;;;;;;5012107;28;20180;-82
2022/08/17 07:04:26;;;;;;;40.78;27.98;;;23.40;99.90;;;;;;5030175;28;20207;-83
2022/08/17 07:09:59;;;;;;;42.47;26.00;;;23.50;99.90;;;;;;5010627;28;20680;-82
2022/08/17 07:12:36;;;;;;;46.13;26.92;;;23.50;99.90;;;;;;5035388;28;20184;-83
2022/08/17 07:15:18;;;;;;;30.70;26.63;;;23.70;99.90;;;;;;5036005;28;20303;-82
2022/08/17 07:17:46;;;;;;;34.33;25.17;;;23.70;99.90;;;;;;5031616;28;20176;-83
2022/08/17 07:20:19;;;;;;;30.30;24.35;;;23.40;99.90;;;;;;5031876;28;20243;-82
2022/08/17 07:22:47;;;;;;;39.88;26.60;;;23.50;99.90;;;;;;5031522;28;20227;-82
2022/08/17 07:25:18;;;;;;;42.50;29.83;;;23.30;99.90;;;;;;5014762;28;20177;-82
2022/08/17 07:27:50;;;;;;;35.90;28.25;;;23.40;99.90;;;;;;5031087;28;20195;-82
2022/08/17 07:30:25;;;;;;;41.30;27.33;;;23.40;99.90;;;;;;5030982;28;20176;-82
2022/08/17 07:33:07;;;;;;;37.90;30.58;;;23.20;99.90;;;;;;5014437;28;20188;-82
2022/08/17 07:35:42;;;;;;;37.90;29.60;;;23.20;99.90;;;;;;5015478;28;20274;-82
2022/08/17 07:38:28;;;;;;;36.28;28.60;;;23.30;99.90;;;;;;5030387;28;20183;-82
2022/08/17 07:41:00;;;;;;;33.67;28.30;;;23.20;99.90;;;;;;5030892;28;20192;-82
2022/08/17 07:43:33;;;;;;;33.97;28.80;;;23.10;99.90;;;;;;5014341;28;20667;-82
2022/08/17 07:49:23;;;;;;;37.88;30.27;;;23.00;99.90;;;;;;5015954;28;20239;-82
2022/08/17 07:51:49;;;;;;;34.65;28.20;;;23.00;99.90;;;;;;5014413;28;20188;-82
2022/08/17 07:54:14;;;;;;;41.83;30.92;;;23.00;99.90;;;;;;5014190;28;20219;-82
2022/08/17 07:56:47;;;;;;;40.65;31.42;;;23.10;99.90;;;;;;5015658;28;20196;-82
2022/08/17 07:59:15;;;;;;;42.13;32.10;;;23.00;99.90;;;;;;5030787;28;20271;-82
2022/08/17 08:01:45;;;;;;;43.88;31.52;;;23.00;99.90;;;;;;5013812;28;20199;-82
2022/08/17 08:04:26;;;;;;;54.10;33.08;;;23.00;99.90;;;;;;5015249;28;20238;-83
2022/08/17 08:06:54;;;;;;;46.78;32.72;;;22.90;99.90;;;;;;5030549;28;20225;-82
2022/08/17 08:09:36;;;;;;;43.95;34.30;;;23.00;99.90;;;;;;5013572;28;20629;-82
2022/08/17 08:12:28;;;;;;;50.13;33.05;;;23.10;99.90;;;;;;5030476;28;20193;-82
2022/08/17 08:15:18;;;;;;;54.33;36.80;;;23.30;99.90;;;;;;5030441;28;20262;-82
2022/08/17 08:18:17;;;;;;;49.10;36.00;;;23.20;99.90;;;;;;5030360;28;20545;-83
2022/08/17 08:20:49;;;;;;;51.45;38.70;;;23.40;99.90;;;;;;5014741;28;20675;-82
2022/08/17 08:23:52;;;;;;;53.47;37.75;;;23.50;99.90;;;;;;5014820;28;20173;-82
2022/08/17 08:26:41;;;;;;;47.78;36.65;;;23.50;99.90;;;;;;5029835;28;20203;-82
2022/08/17 08:29:21;;;;;;;48.92;35.50;;;23.50;99.90;;;;;;5014554;28;20160;-82
2022/08/17 08:32:00;;;;;;;48.65;36.17;;;23.20;99.90;;;;;;5030139;28;20675;-83
2022/08/17 08:34:56;;;;;;;45.40;32.92;;;23.00;99.90;;;;;;5012817;28;20265;-82
2022/08/17 08:37:44;;;;;;;53.28;33.20;;;23.20;99.90;;;;;;5012996;28;20602;-82
2022/08/17 08:40:31;;;;;;;46.42;32.83;;;23.30;99.90;;;;;;5013490;28;20168;-82
2022/08/17 08:43:23;;;;;;;37.38;30.00;;;23.30;99.90;;;;;;5016772;28;20262;-82
2022/08/17 08:46:08;;;;;;;34.17;28.13;;;23.40;99.90;;;;;;5037840;28;20145;-83
2022/08/17 08:48:54;;;;;;;45.10;31.75;;;23.30;99.90;;;;;;5015364;28;20683;-81
2022/08/17 08:51:40;;;;;;;43.80;32.40;;;23.00;99.90;;;;;;5012256;28;20204;-82
2022/08/17 08:54:32;;;;;;;52.83;32.97;;;22.50;99.90;;;;;;5012997;28;20222;-82
2022/08/17 08:57:11;;;;;;;45.10;32.35;;;22.50;99.90;;;;;;5014237;28;20652;-82
2022/08/17 08:59:52;;;;;;;49.40;33.95;;;22.60;99.90;;;;;;5012794;28;20255;-81
2022/08/17 09:02:32;;;;;;;53.38;36.50;;;22.80;99.90;;;;;;5014134;28;20196;-82
2022/08/17 09:05:17;;;;;;;53.47;35.42;;;23.00;99.90;;;;;;5014323;28;20195;-82
2022/08/17 09:07:51;;;;;;;51.65;36.65;;;22.90;99.90;;;;;;5016438;28;20763;-82
2022/08/17 09:10:33;;;;;;;51.13;36.85;;;22.70;99.90;;;;;;5014765;28;20165;-82
2022/08/17 09:13:19;;;;;;;53.58;35.42;;;22.80;99.90;;;;;;5013151;28;20176;-82
2022/08/17 09:15:49;;;;;;;50.47;35.92;;;23.20;99.90;;;;;;5015071;28;20181;-82
2022/08/17 09:18:32;;;;;;;54.05;36.83;;;23.50;99.90;;;;;;5012596;28;20161;-82
2022/08/17 09:21:25;;;;;;;49.35;34.22;;;23.80;99.90;;;;;;5028947;28;20195;-82
2022/08/17 09:24:05;;;;;;;49.55;37.22;;;23.80;99.90;;;;;;5029031;28;20182;-82
2022/08/17 09:26:39;;;;;;;44.50;33.25;;;23.80;99.90;;;;;;5029277;28;20644;-81
2022/08/17 09:29:09;;;;;;;48.15;33.88;;;23.70;99.90;;;;;;5014074;28;20206;-83
2022/08/17 09:31:46;;;;;;;44.95;33.10;;;24.00;99.90;;;;;;5029077;28;20227;-82
2022/08/17 09:34:15;;;;;;;50.10;33.45;;;24.50;99.90;;;;;;5029786;28;20211;-82
2022/08/17 09:36:55;;;;;;;46.92;31.73;;;25.00;99.90;;;;;;5029171;28;20173;-82
2022/08/17 09:39:33;;;;;;;39.55;29.75;;;25.40;99.90;;;;;;5013458;28;20164;-82
2022/08/17 09:42:40;;;;;;;41.35;31.58;;;25.80;99.90;;;;;;5013687;28;20279;-82
2022/08/17 09:45:18;;;;;;;42.75;30.23;;;26.10;99.90;;;;;;5002981;28;20194;-82
2022/08/17 09:47:55;;;;;;;44.13;28.63;;;26.40;99.90;;;;;;5012573;28;20179;-82
2022/08/17 09:50:26;;;;;;;40.95;31.20;;;26.20;99.90;;;;;;5012211;28;20292;-82
2022/08/17 09:52:57;;;;;;;37.45;29.35;;;26.00;99.90;;;;;;5028695;28;20171;-83
2022/08/17 09:56:01;;;;;;;39.50;30.85;;;26.10;99.90;;;;;;5028758;28;20553;-82
2022/08/17 09:58:55;;;;;;;36.92;29.80;;;25.90;99.90;;;;;;5000512;28;20226;-84
2022/08/17 10:01:34;;;;;;;37.10;29.80;;;25.60;99.90;;;;;;5028879;28;20707;-83
2022/08/17 10:04:24;;;;;;;45.90;31.17;;;25.60;99.90;;;;;;5028838;28;20527;-83
2022/08/17 10:07:05;;;;;;;45.38;30.70;;;25.80;99.90;;;;;;5028636;28;20199;-82
2022/08/17 10:10:00;;;;;;;42.78;29.02;;;25.50;99.90;;;;;;5011697;28;20255;-82
2022/08/17 10:12:35;;;;;;;39.40;29.33;;;25.80;99.90;;;;;;5011352;28;20636;-82
2022/08/17 10:15:17;;;;;;;42.53;26.63;;;26.10;99.90;;;;;;5011315;28;20211;-82
2022/08/17 10:18:07;;;;;;;47.55;29.58;;;26.10;99.90;;;;;;5028153;28;20169;-81
2022/08/17 10:26:11;;;;;;;44.33;27.63;;;25.90;99.90;;;;;;5011471;28;20596;-81
2022/08/17 10:26:39;;;;;;;33.92;26.17;;;25.70;99.90;;;;;;5013354;28;20226;-82
2022/08/17 10:29:31;;;;;;;32.47;25.80;;;25.80;99.90;;;;;;5028737;28;20263;-82
2022/08/17 10:32:03;;;;;;;35.22;26.77;;;25.70;99.90;;;;;;4998531;28;20205;-82
2022/08/17 10:34:55;;;;;;;32.28;26.33;;;25.10;99.90;;;;;;5011463;28;20204;-81
2022/08/17 10:37:48;;;;;;;31.17;26.08;;;24.80;99.90;;;;;;5027648;28;20195;-82
2022/08/17 10:40:38;;;;;;;31.10;25.90;;;24.80;99.90;;;;;;5012856;28;20176;-81
2022/08/17 10:43:21;;;;;;;31.77;25.85;;;24.70;99.90;;;;;;5012340;28;20188;-81
2022/08/17 10:46:17;;;;;;;31.42;25.75;;;24.70;99.90;;;;;;5015581;28;20241;-81
2022/08/17 10:48:43;;;;;;;39.42;27.67;;;24.80;99.90;;;;;;5016867;28;20169;-81
2022/08/17 10:51:36;;;;;;;40.97;30.23;;;25.00;99.90;;;;;;5016340;28;20246;-81
2022/08/17 10:54:04;;;;;;;37.83;29.75;;;25.20;99.90;;;;;;5014890;28;20216;-81
2022/08/17 10:56:46;;;;;;;33.40;28.02;;;25.20;99.90;;;;;;5031828;28;20632;-82
2022/08/17 10:59:34;;;;;;;38.97;28.98;;;25.20;99.90;;;;;;5018295;28;20578;-82
2022/08/17 11:02:03;;;;;;;41.92;28.63;;;25.00;99.90;;;;;;5018097;28;21065;-82
2022/08/17 11:04:52;;;;;;;46.60;28.80;;;24.90;99.90;;;;;;5023443;28;20211;-83
2022/08/17 11:07:52;;;;;;;40.85;29.00;;;24.90;99.90;;;;;;5023576;28;20180;-82
2022/08/17 11:10:40;;;;;;;39.88;27.70;;;24.60;99.90;;;;;;5054582;28;20172;-81
2022/08/17 11:13:38;;;;;;;34.88;26.05;;;24.10;99.90;;;;;;5047161;28;20200;-82
2022/08/17 11:16:38;;;;;;;38.17;25.10;;;23.90;99.90;;;;;;5028330;28;20235;-81
2022/08/17 11:19:42;;;;;;;38.30;26.25;;;23.90;99.90;;;;;;5044566;28;20177;-81
2022/08/17 11:22:20;;;;;;;35.00;26.65;;;23.80;99.90;;;;;;5028335;28;20184;-82
2022/08/17 11:24:51;;;;;;;34.65;26.83;;;24.20;99.90;;;;;;5029516;28;20168;-80
2022/08/17 11:27:32;;;;;;;32.25;25.85;;;24.60;99.90;;;;;;5047888;28;20244;-81
2022/08/17 11:30:10;;;;;;;28.13;22.95;;;24.60;99.90;;;;;;5036908;28;20169;-88
2022/08/17 11:32:47;;;;;;;26.42;20.60;;;24.80;99.90;;;;;;5047333;28;20176;-80
2022/08/17 11:35:21;;;;;;;32.03;21.58;;;25.20;99.90;;;;;;5034339;28;20192;-81
2022/08/17 11:38:25;;;;;;;26.38;21.30;;;25.20;99.90;;;;;;5031960;28;20187;-81
2022/08/17 11:41:12;;;;;;;23.58;19.60;;;25.40;99.90;;;;;;5051173;28;20215;-83
2022/08/17 11:43:56;;;;;;;20.00;15.30;;;25.50;99.90;;;;;;5038495;28;20192;-81
2022/08/17 11:52:45;;;;;;;15.15;12.82;;;26.10;99.90;;;;;;5019563;28;20264;-82
2022/08/17 11:55:30;;;;;;;14.52;11.90;;;26.30;99.90;;;;;;5019099;28;20228;-81
2022/08/17 11:58:03;;;;;;;14.45;10.95;;;26.50;99.90;;;;;;5016652;28;20172;-81
2022/08/17 12:00:46;;;;;;;11.30;10.15;;;26.90;99.90;;;;;;5017368;28;20192;-81
2022/08/17 12:03:32;;;;;;;10.63;9.55;;;27.00;99.90;;;;;;5016159;28;20179;-81
2022/08/17 12:06:21;;;;;;;10.70;9.82;;;26.70;99.90;;;;;;5015240;28;20187;-81
2022/08/17 12:08:54;;;;;;;10.15;9.20;;;26.50;99.90;;;;;;5015590;28;20185;-81
2022/08/17 12:11:26;;;;;;;9.18;8.32;;;26.80;99.90;;;;;;5031485;28;20193;-81
2022/08/17 12:13:56;;;;;;;6.95;6.30;;;27.00;99.90;;;;;;5020367;28;20235;-82
2022/08/17 12:16:23;;;;;;;9.50;7.82;;;26.70;99.90;;;;;;5024934;28;20606;-81
2022/08/17 12:18:58;;;;;;;6.82;6.32;;;26.20;99.90;;;;;;5034413;28;20176;-81
2022/08/17 12:21:33;;;;;;;10.43;6.47;;;26.40;99.90;;;;;;5014632;28;20549;-81
2022/08/17 12:24:34;;;;;;;8.15;7.45;;;26.40;99.90;;;;;;5016518;28;20218;-80
2022/08/17 12:27:04;;;;;;;9.63;8.75;;;26.40;99.90;;;;;;5017253;28;20176;-81
2022/08/17 12:29:33;;;;;;;8.48;7.78;;;26.90;99.90;;;;;;5016951;28;20168;-81
2022/08/17 12:32:00;;;;;;;11.75;7.57;;;27.10;99.90;;;;;;5031818;28;20189;-81
2022/08/17 12:34:39;;;;;;;14.27;7.82;;;27.40;99.90;;;;;;5016850;28;20203;-81
2022/08/17 12:37:26;;;;;;;8.52;7.72;;;26.80;99.90;;;;;;5017205;28;20255;-81
2022/08/17 12:39:59;;;;;;;10.38;8.05;;;26.60;99.90;;;;;;5031632;28;20254;-82
2022/08/17 12:42:31;;;;;;;8.85;7.43;;;27.00;99.90;;;;;;5030801;28;20183;-81
2022/08/17 12:44:58;;;;;;;7.50;6.90;;;27.20;99.90;;;;;;5030499;28;20168;-82
2022/08/17 12:47:25;;;;;;;10.82;7.72;;;27.30;99.90;;;;;;5014591;28;20164;-81
2022/08/17 12:49:52;;;;;;;9.13;8.35;;;27.30;99.90;;;;;;5029274;28;20187;-83
2022/08/17 12:52:18;;;;;;;8.30;7.60;;;27.30;99.90;;;;;;5029684;28;20176;-81
2022/08/17 12:54:48;;;;;;;7.47;6.85;;;26.90;99.90;;;;;;5014401;28;20208;-80
2022/08/17 12:57:24;;;;;;;13.40;7.68;;;26.90;99.90;;;;;;5012432;28;20196;-81
2022/08/17 13:00:06;;;;;;;7.45;6.75;;;26.50;99.90;;;;;;5013342;28;20212;-81
2022/08/17 13:02:46;;;;;;;7.30;6.70;;;26.30;99.90;;;;;;5014325;28;20168;-81
2022/08/17 13:05:35;;;;;;;9.32;6.75;;;26.30;99.90;;;;;;5014478;28;20604;-84
2022/08/17 13:08:12;;;;;;;8.32;7.10;;;26.20;99.90;;;;;;5002021;28;20306;-82
2022/08/17 13:10:37;;;;;;;7.07;6.50;;;26.20;99.90;;;;;;5028947;28;20195;-81
2022/08/17 13:13:18;;;;;;;7.93;7.13;;;26.00;99.90;;;;;;5014078;28;20547;-81
2022/08/17 13:15:54;;;;;;;7.35;6.63;;;25.70;99.90;;;;;;5029316;28;20181;-81
2022/08/17 13:18:37;;;;;;;14.40;6.50;;;25.70;99.90;;;;;;5014087;28;20170;-81
2022/08/17 13:21:05;;;;;;;7.90;7.22;;;25.50;99.90;;;;;;5012143;28;20192;-80
2022/08/17 13:23:30;;;;;;;7.95;6.85;;;25.20;99.90;;;;;;5014096;28;20176;-81
2022/08/17 13:26:04;;;;;;;8.10;7.50;;;24.70;99.90;;;;;;5030255;28;20241;-81
2022/08/17 13:28:31;;;;;;;8.02;7.32;;;24.80;99.90;;;;;;5018903;28;20171;-81
2022/08/17 13:31:19;;;;;;;7.85;6.97;;;25.00;99.90;;;;;;5053116;28;20188;-80
2022/08/17 13:33:45;;;;;;;13.23;7.35;;;25.10;99.90;;;;;;5015676;28;20243;-81
2022/08/17 13:36:11;;;;;;;8.93;7.32;;;25.30;99.90;;;;;;5016058;28;20177;-81
2022/08/17 13:38:46;;;;;;;7.00;6.50;;;25.20;99.90;;;;;;5012165;28;20215;-81
2022/08/17 13:41:33;;;;;;;7.72;6.93;;;25.10;99.90;;;;;;5012227;28;20235;-81